sensor_id;sensor_type;location;lat;lon;timestamp;temperature;humidity
39957;DHT22;48483;44.640;7.494;2022-12-18T00:01:59;3.10;99.90
39957;DHT22;48483;44.640;7.494;2022-12-18T00:04:27;3.10;99.90
39957;DHT22;48483;44.640;7.494;2022-12-18T00:06:55;3.20;99.90
39957;DHT22;48483;44.640;7.494;2022-12-18T00:09:21;3.20;99.90
39957;DHT22;48483;44.640;7.494;2022-12-18T00:11:48;3.20;99.90
39957;DHT22;48483;44.640;7.494;2022-12-18T00:14:15;3.30;99.90
39957;DHT22;48483;44.640;7.494;2022-12-18T00:16:44;3.30;99.90
39957;DHT22;48483;44.640;7.494;2022-12-18T00:19:11;3.30;99.90
39957;DHT22;48483;44.640;7.494;2022-12-18T00:21:38;3.00;99.90
39957;DHT22;48483;44.640;7.494;2022-12-18T00:24:10;2.80;99.90
39957;DHT22;48483;44.640;7.494;2022-12-18T00:26:38;2.80;99.90
39957;DHT22;48483;44.640;7.494;2022-12-18T00:29:07;2.70;99.90
39957;DHT22;48483;44.640;7.494;2022-12-18T00:31:35;2.70;99.90
39957;DHT22;48483;44.640;7.494;2022-12-18T00:34:02;2.70;99.90
39957;DHT22;48483;44.640;7.494;2022-12-18T00:36:30;2.80;99.90
39957;DHT22;48483;44.640;7.494;2022-12-18T00:38:59;2.70;99.90
39957;DHT22;48483;44.640;7.494;2022-12-18T00:41:45;2.70;99.90
39957;DHT22;48483;44.640;7.494;2022-12-18T00:44:31;2.70;99.90
39957;DHT22;48483;44.640;7.494;2022-12-18T00:46:58;2.80;99.90
39957;DHT22;48483;44.640;7.494;2022-12-18T00:49:24;2.80;99.90
39957;DHT22;48483;44.640;7.494;2022-12-18T00:51:51;2.80;99.90
39957;DHT22;48483;44.640;7.494;2022-12-18T00:54:18;2.80;99.90
39957;DHT22;48483;44.640;7.494;2022-12-18T00:56:46;2.90;99.90
39957;DHT22;48483;44.640;7.494;2022-12-18T00:59:12;2.90;99.90
39957;DHT22;48483;44.640;7.494;2022-12-18T01:01:39;2.90;99.90
39957;DHT22;48483;44.640;7.494;2022-12-18T01:04:06;2.90;99.90
39957;DHT22;48483;44.640;7.494;2022-12-18T01:06:32;2.90;99.90
39957;DHT22;48483;44.640;7.494;2022-12-18T01:08:59;2.90;99.90
39957;DHT22;48483;44.640;7.494;2022-12-18T01:11:26;3.00;99.90
39957;DHT22;48483;44.640;7.494;2022-12-18T01:13:54;2.90;99.90
39957;DHT22;48483;44.640;7.494;2022-12-18T01:16:22;3.00;99.90
39957;DHT22;48483;44.640;7.494;2022-12-18T01:18:51;3.00;99.90
39957;DHT22;48483;44.640;7.494;2022-12-18T01:21:19;3.00;99.90
39957;DHT22;48483;44.640;7.494;2022-12-18T01:23:46;3.00;99.90
39957;DHT22;48483;44.640;7.494;2022-12-18T01:26:15;3.10;99.90
39957;DHT22;48483;44.640;7.494;2022-12-18T01:28:42;3.10;99.90
39957;DHT22;48483;44.640;7.494;2022-12-18T01:31:13;3.20;99.90
39957;DHT22;48483;44.640;7.494;2022-12-18T01:33:41;3.20;99.90
39957;DHT22;48483;44.640;7.494;2022-12-18T01:36:08;3.20;99.90
39957;DHT22;48483;44.640;7.494;2022-12-18T01:38:40;3.20;99.90
39957;DHT22;48483;44.640;7.494;2022-12-18T01:41:08;3.20;99.90
39957;DHT22;48483;44.640;7.494;2022-12-18T01:43:47;3.20;99.90
39957;DHT22;48483;44.640;7.494;2022-12-18T01:46:17;3.20;99.90
39957;DHT22;48483;44.640;7.494;2022-12-18T01:48:45;3.20;99.90
39957;DHT22;48483;44.640;7.494;2022-12-18T01:51:13;3.10;99.90
39957;DHT22;48483;44.640;7.494;2022-12-18T01:53:41;3.20;99.90
39957;DHT22;48483;44.640;7.494;2022-12-18T01:56:12;3.10;99.90
39957;DHT22;48483;44.640;7.494;2022-12-18T01:58:46;3.00;99.90
39957;DHT22;48483;44.640;7.494;2022-12-18T02:01:16;2.90;99.90
39957;DHT22;48483;44.640;7.494;2022-12-18T02:03:44;2.90;99.90
39957;DHT22;48483;44.640;7.494;2022-12-18T02:06:15;2.90;99.90
39957;DHT22;48483;44.640;7.494;2022-12-18T02:08:58;2.90;99.90
39957;DHT22;48483;44.640;7.494;2022-12-18T02:11:36;2.90;99.90
39957;DHT22;48483;44.640;7.494;2022-12-18T02:14:12;2.90;99.90
39957;DHT22;48483;44.640;7.494;2022-12-18T02:16:48;2.90;99.90
39957;DHT22;48483;44.640;7.494;2022-12-18T02:19:28;2.80;99.90
39957;DHT22;48483;44.640;7.494;2022-12-18T02:22:11;2.80;99.90
39957;DHT22;48483;44.640;7.494;2022-12-18T02:24:47;2.80;99.90
39957;DHT22;48483;44.640;7.494;2022-12-18T02:27:21;2.80;99.90
39957;DHT22;48483;44.640;7.494;2022-12-18T02:29:51;2.70;99.90
39957;DHT22;48483;44.640;7.494;2022-12-18T02:32:20;2.80;99.90
39957;DHT22;48483;44.640;7.494;2022-12-18T02:34:49;2.70;99.90
39957;DHT22;48483;44.640;7.494;2022-12-18T02:37:18;2.70;99.90
39957;DHT22;48483;44.640;7.494;2022-12-18T02:39:49;2.70;99.90
39957;DHT22;48483;44.640;7.494;2022-12-18T02:42:18;2.60;99.90
39957;DHT22;48483;44.640;7.494;2022-12-18T02:44:48;2.70;99.90
39957;DHT22;48483;44.640;7.494;2022-12-18T02:47:21;2.70;99.90
39957;DHT22;48483;44.640;7.494;2022-12-18T02:49:54;2.70;99.90
39957;DHT22;48483;44.640;7.494;2022-12-18T02:52:28;2.70;99.90
39957;DHT22;48483;44.640;7.494;2022-12-18T02:55:10;2.70;99.90
39957;DHT22;48483;44.640;7.494;2022-12-18T02:57:40;2.80;99.90
39957;DHT22;48483;44.640;7.494;2022-12-18T03:00:13;2.80;99.90
39957;DHT22;48483;44.640;7.494;2022-12-18T03:02:45;2.80;99.90
39957;DHT22;48483;44.640;7.494;2022-12-18T03:05:16;2.80;99.90
39957;DHT22;48483;44.640;7.494;2022-12-18T03:07:50;2.80;99.90
39957;DHT22;48483;44.640;7.494;2022-12-18T03:10:25;2.80;99.90
39957;DHT22;48483;44.640;7.494;2022-12-18T03:12:56;2.90;99.90
39957;DHT22;48483;44.640;7.494;2022-12-18T03:15:30;2.90;99.90
39957;DHT22;48483;44.640;7.494;2022-12-18T03:18:10;3.00;99.90
39957;DHT22;48483;44.640;7.494;2022-12-18T03:20:41;3.00;99.90
39957;DHT22;48483;44.640;7.494;2022-12-18T03:23:17;3.10;99.90
39957;DHT22;48483;44.640;7.494;2022-12-18T03:25:49;3.10;99.90
39957;DHT22;48483;44.640;7.494;2022-12-18T03:28:21;3.10;99.90
39957;DHT22;48483;44.640;7.494;2022-12-18T03:30:57;3.10;99.90
39957;DHT22;48483;44.640;7.494;2022-12-18T03:33:32;3.10;99.90
39957;DHT22;48483;44.640;7.494;2022-12-18T03:36:01;3.30;99.90
39957;DHT22;48483;44.640;7.494;2022-12-18T03:38:28;3.30;99.90
39957;DHT22;48483;44.640;7.494;2022-12-18T03:41:01;3.30;99.90
39957;DHT22;48483;44.640;7.494;2022-12-18T03:43:41;3.30;99.90
39957;DHT22;48483;44.640;7.494;2022-12-18T03:46:17;3.30;99.90
39957;DHT22;48483;44.640;7.494;2022-12-18T03:48:52;3.20;99.90
39957;DHT22;48483;44.640;7.494;2022-12-18T03:51:26;3.30;99.90
39957;DHT22;48483;44.640;7.494;2022-12-18T03:53:57;3.30;99.90
39957;DHT22;48483;44.640;7.494;2022-12-18T03:56:31;3.30;99.90
39957;DHT22;48483;44.640;7.494;2022-12-18T03:58:59;3.30;99.90
39957;DHT22;48483;44.640;7.494;2022-12-18T04:01:32;3.30;99.90
39957;DHT22;48483;44.640;7.494;2022-12-18T04:04:01;3.40;99.90
39957;DHT22;48483;44.640;7.494;2022-12-18T04:06:36;3.40;99.90
39957;DHT22;48483;44.640;7.494;2022-12-18T04:09:04;3.40;99.90
39957;DHT22;48483;44.640;7.494;2022-12-18T04:11:33;3.40;99.90
39957;DHT22;48483;44.640;7.494;2022-12-18T04:14:03;3.50;99.90
39957;DHT22;48483;44.640;7.494;2022-12-18T04:16:32;3.50;99.90
39957;DHT22;48483;44.640;7.494;2022-12-18T04:19:01;3.40;99.90
39957;DHT22;48483;44.640;7.494;2022-12-18T04:21:32;3.40;99.90
39957;DHT22;48483;44.640;7.494;2022-12-18T04:23:58;3.40;99.90
39957;DHT22;48483;44.640;7.494;2022-12-18T04:26:25;3.40;99.90
39957;DHT22;48483;44.640;7.494;2022-12-18T04:29:07;3.40;99.90
39957;DHT22;48483;44.640;7.494;2022-12-18T04:31:35;3.40;99.90
39957;DHT22;48483;44.640;7.494;2022-12-18T04:34:03;3.40;99.90
39957;DHT22;48483;44.640;7.494;2022-12-18T04:36:36;3.40;99.90
39957;DHT22;48483;44.640;7.494;2022-12-18T04:39:03;3.40;99.90
39957;DHT22;48483;44.640;7.494;2022-12-18T04:41:31;3.40;99.90
39957;DHT22;48483;44.640;7.494;2022-12-18T04:43:58;3.40;99.90
39957;DHT22;48483;44.640;7.494;2022-12-18T04:46:24;3.40;99.90
39957;DHT22;48483;44.640;7.494;2022-12-18T04:48:52;3.40;99.90
39957;DHT22;48483;44.640;7.494;2022-12-18T04:51:19;3.40;99.90
39957;DHT22;48483;44.640;7.494;2022-12-18T04:53:46;3.50;99.90
39957;DHT22;48483;44.640;7.494;2022-12-18T04:56:14;3.40;99.90
39957;DHT22;48483;44.640;7.494;2022-12-18T04:58:43;3.40;99.90
39957;DHT22;48483;44.640;7.494;2022-12-18T05:01:11;3.40;99.90
39957;DHT22;48483;44.640;7.494;2022-12-18T05:03:38;3.40;99.90
39957;DHT22;48483;44.640;7.494;2022-12-18T05:06:07;3.40;99.90
39957;DHT22;48483;44.640;7.494;2022-12-18T05:08:34;3.40;99.90
39957;DHT22;48483;44.640;7.494;2022-12-18T05:11:03;3.40;99.90
39957;DHT22;48483;44.640;7.494;2022-12-18T05:13:31;3.40;99.90
39957;DHT22;48483;44.640;7.494;2022-12-18T05:15:58;3.40;99.90
39957;DHT22;48483;44.640;7.494;2022-12-18T05:18:25;3.40;99.90
39957;DHT22;48483;44.640;7.494;2022-12-18T05:20:53;3.40;99.90
39957;DHT22;48483;44.640;7.494;2022-12-18T05:23:22;3.40;99.90
39957;DHT22;48483;44.640;7.494;2022-12-18T05:25:51;3.40;99.90
39957;DHT22;48483;44.640;7.494;2022-12-18T05:28:18;3.40;99.90
39957;DHT22;48483;44.640;7.494;2022-12-18T05:30:48;3.40;99.90
39957;DHT22;48483;44.640;7.494;2022-12-18T05:33:15;3.40;99.90
39957;DHT22;48483;44.640;7.494;2022-12-18T05:35:42;3.40;99.90
39957;DHT22;48483;44.640;7.494;2022-12-18T05:38:08;3.40;99.90
39957;DHT22;48483;44.640;7.494;2022-12-18T05:40:36;3.30;99.90
39957;DHT22;48483;44.640;7.494;2022-12-18T05:43:03;3.30;99.90
39957;DHT22;48483;44.640;7.494;2022-12-18T05:45:32;3.30;99.90
39957;DHT22;48483;44.640;7.494;2022-12-18T05:47:59;3.30;99.90
39957;DHT22;48483;44.640;7.494;2022-12-18T05:50:25;3.30;99.90
39957;DHT22;48483;44.640;7.494;2022-12-18T05:52:52;3.40;99.90
39957;DHT22;48483;44.640;7.494;2022-12-18T05:55:18;3.40;99.90
39957;DHT22;48483;44.640;7.494;2022-12-18T05:57:46;3.40;99.90
39957;DHT22;48483;44.640;7.494;2022-12-18T06:00:14;3.40;99.90
39957;DHT22;48483;44.640;7.494;2022-12-18T06:02:41;3.40;99.90
39957;DHT22;48483;44.640;7.494;2022-12-18T06:05:08;3.40;99.90
39957;DHT22;48483;44.640;7.494;2022-12-18T06:07:35;3.50;99.90
39957;DHT22;48483;44.640;7.494;2022-12-18T06:10:01;3.50;99.90
39957;DHT22;48483;44.640;7.494;2022-12-18T06:12:29;3.50;99.90
39957;DHT22;48483;44.640;7.494;2022-12-18T06:14:58;3.50;99.90
39957;DHT22;48483;44.640;7.494;2022-12-18T06:17:27;3.50;99.90
39957;DHT22;48483;44.640;7.494;2022-12-18T06:19:55;3.50;99.90
39957;DHT22;48483;44.640;7.494;2022-12-18T06:22:21;3.50;99.90
39957;DHT22;48483;44.640;7.494;2022-12-18T06:24:48;3.40;99.90
39957;DHT22;48483;44.640;7.494;2022-12-18T06:27:15;3.40;99.90
39957;DHT22;48483;44.640;7.494;2022-12-18T06:29:42;3.40;99.90
39957;DHT22;48483;44.640;7.494;2022-12-18T06:32:10;3.40;99.90
39957;DHT22;48483;44.640;7.494;2022-12-18T06:34:37;3.50;99.90
39957;DHT22;48483;44.640;7.494;2022-12-18T06:37:04;3.50;99.90
39957;DHT22;48483;44.640;7.494;2022-12-18T06:39:30;3.50;99.90
39957;DHT22;48483;44.640;7.494;2022-12-18T06:41:57;3.50;99.90
39957;DHT22;48483;44.640;7.494;2022-12-18T06:44:24;3.50;99.90
39957;DHT22;48483;44.640;7.494;2022-12-18T06:46:50;3.50;99.90
39957;DHT22;48483;44.640;7.494;2022-12-18T06:49:18;3.50;99.90
39957;DHT22;48483;44.640;7.494;2022-12-18T06:51:45;3.50;99.90
39957;DHT22;48483;44.640;7.494;2022-12-18T06:54:12;3.60;99.90
39957;DHT22;48483;44.640;7.494;2022-12-18T06:56:38;3.60;99.90
39957;DHT22;48483;44.640;7.494;2022-12-18T06:59:05;3.60;99.90
39957;DHT22;48483;44.640;7.494;2022-12-18T07:01:32;3.60;99.90
39957;DHT22;48483;44.640;7.494;2022-12-18T07:03:58;3.60;99.90
39957;DHT22;48483;44.640;7.494;2022-12-18T07:06:26;3.60;99.90
39957;DHT22;48483;44.640;7.494;2022-12-18T07:08:54;3.60;99.90
39957;DHT22;48483;44.640;7.494;2022-12-18T07:11:20;3.60;99.90
39957;DHT22;48483;44.640;7.494;2022-12-18T07:13:47;3.60;99.90
39957;DHT22;48483;44.640;7.494;2022-12-18T07:16:16;3.60;99.90
39957;DHT22;48483;44.640;7.494;2022-12-18T07:18:43;3.60;99.90
39957;DHT22;48483;44.640;7.494;2022-12-18T07:21:14;3.60;99.90
39957;DHT22;48483;44.640;7.494;2022-12-18T07:23:42;3.60;99.90
39957;DHT22;48483;44.640;7.494;2022-12-18T07:26:10;3.60;99.90
39957;DHT22;48483;44.640;7.494;2022-12-18T07:28:39;3.60;99.90
39957;DHT22;48483;44.640;7.494;2022-12-18T07:31:07;3.60;99.90
39957;DHT22;48483;44.640;7.494;2022-12-18T07:33:35;3.60;99.90
39957;DHT22;48483;44.640;7.494;2022-12-18T07:36:02;3.60;99.90
39957;DHT22;48483;44.640;7.494;2022-12-18T07:38:29;3.70;99.90
39957;DHT22;48483;44.640;7.494;2022-12-18T07:41:02;3.70;99.90
39957;DHT22;48483;44.640;7.494;2022-12-18T07:43:29;3.70;99.90
39957;DHT22;48483;44.640;7.494;2022-12-18T07:45:55;3.60;99.90
39957;DHT22;48483;44.640;7.494;2022-12-18T07:48:22;3.70;99.90
39957;DHT22;48483;44.640;7.494;2022-12-18T07:50:49;3.70;99.90
39957;DHT22;48483;44.640;7.494;2022-12-18T07:53:15;3.70;99.90
39957;DHT22;48483;44.640;7.494;2022-12-18T07:55:42;3.80;99.90
39957;DHT22;48483;44.640;7.494;2022-12-18T07:58:10;3.80;99.90
39957;DHT22;48483;44.640;7.494;2022-12-18T08:00:37;3.90;99.90
39957;DHT22;48483;44.640;7.494;2022-12-18T08:03:04;3.80;99.90
39957;DHT22;48483;44.640;7.494;2022-12-18T08:05:31;3.80;99.90
39957;DHT22;48483;44.640;7.494;2022-12-18T08:07:58;3.80;99.90
39957;DHT22;48483;44.640;7.494;2022-12-18T08:10:25;3.90;99.90
39957;DHT22;48483;44.640;7.494;2022-12-18T08:12:51;3.90;99.90
39957;DHT22;48483;44.640;7.494;2022-12-18T08:15:20;3.90;99.90
39957;DHT22;48483;44.640;7.494;2022-12-18T08:17:46;3.90;99.90
39957;DHT22;48483;44.640;7.494;2022-12-18T08:20:13;4.00;99.90
39957;DHT22;48483;44.640;7.494;2022-12-18T08:22:44;4.00;99.90
39957;DHT22;48483;44.640;7.494;2022-12-18T08:25:11;4.00;99.90
39957;DHT22;48483;44.640;7.494;2022-12-18T08:27:37;4.10;99.90
39957;DHT22;48483;44.640;7.494;2022-12-18T08:30:05;4.10;99.90
39957;DHT22;48483;44.640;7.494;2022-12-18T08:32:33;4.10;99.90
39957;DHT22;48483;44.640;7.494;2022-12-18T08:35:00;4.10;99.90
39957;DHT22;48483;44.640;7.494;2022-12-18T08:37:26;4.10;99.90
39957;DHT22;48483;44.640;7.494;2022-12-18T08:39:53;4.10;99.90
39957;DHT22;48483;44.640;7.494;2022-12-18T08:42:20;4.20;99.90
39957;DHT22;48483;44.640;7.494;2022-12-18T08:45:06;4.20;99.90
39957;DHT22;48483;44.640;7.494;2022-12-18T08:47:34;4.30;99.90
39957;DHT22;48483;44.640;7.494;2022-12-18T08:50:01;4.30;99.90
39957;DHT22;48483;44.640;7.494;2022-12-18T08:52:28;4.30;99.90
39957;DHT22;48483;44.640;7.494;2022-12-18T08:54:54;4.40;99.90
39957;DHT22;48483;44.640;7.494;2022-12-18T08:57:21;4.50;99.90
39957;DHT22;48483;44.640;7.494;2022-12-18T08:59:47;4.50;99.90
39957;DHT22;48483;44.640;7.494;2022-12-18T09:02:14;4.50;99.90
39957;DHT22;48483;44.640;7.494;2022-12-18T09:04:42;4.50;99.90
39957;DHT22;48483;44.640;7.494;2022-12-18T09:07:10;4.50;99.90
39957;DHT22;48483;44.640;7.494;2022-12-18T09:09:37;4.60;99.90
39957;DHT22;48483;44.640;7.494;2022-12-18T09:12:03;4.60;99.90
39957;DHT22;48483;44.640;7.494;2022-12-18T09:14:30;4.60;99.90
39957;DHT22;48483;44.640;7.494;2022-12-18T09:16:57;4.60;99.90
39957;DHT22;48483;44.640;7.494;2022-12-18T09:19:23;4.70;99.90
39957;DHT22;48483;44.640;7.494;2022-12-18T09:21:52;4.70;99.90
39957;DHT22;48483;44.640;7.494;2022-12-18T09:24:18;4.70;99.90
39957;DHT22;48483;44.640;7.494;2022-12-18T09:26:45;4.70;99.90
39957;DHT22;48483;44.640;7.494;2022-12-18T09:29:11;4.70;99.90
39957;DHT22;48483;44.640;7.494;2022-12-18T09:31:38;4.70;99.90
39957;DHT22;48483;44.640;7.494;2022-12-18T09:34:05;4.70;99.90
39957;DHT22;48483;44.640;7.494;2022-12-18T09:36:32;4.70;99.90
39957;DHT22;48483;44.640;7.494;2022-12-18T09:39:00;4.70;99.90
39957;DHT22;48483;44.640;7.494;2022-12-18T09:41:39;4.80;99.90
39957;DHT22;48483;44.640;7.494;2022-12-18T09:44:17;4.80;99.90
39957;DHT22;48483;44.640;7.494;2022-12-18T09:46:49;4.90;99.90
39957;DHT22;48483;44.640;7.494;2022-12-18T09:49:20;4.90;99.90
39957;DHT22;48483;44.640;7.494;2022-12-18T09:51:52;4.90;99.90
39957;DHT22;48483;44.640;7.494;2022-12-18T09:54:23;4.90;99.90
39957;DHT22;48483;44.640;7.494;2022-12-18T09:56:52;4.90;99.90
39957;DHT22;48483;44.640;7.494;2022-12-18T09:59:24;4.90;99.90
39957;DHT22;48483;44.640;7.494;2022-12-18T10:01:51;4.90;99.90
39957;DHT22;48483;44.640;7.494;2022-12-18T10:04:18;4.90;99.90
39957;DHT22;48483;44.640;7.494;2022-12-18T10:06:50;5.00;99.90
39957;DHT22;48483;44.640;7.494;2022-12-18T10:09:27;5.00;99.90
39957;DHT22;48483;44.640;7.494;2022-12-18T10:12:02;4.90;99.90
39957;DHT22;48483;44.640;7.494;2022-12-18T10:14:36;4.80;99.90
39957;DHT22;48483;44.640;7.494;2022-12-18T10:17:15;4.80;99.90
39957;DHT22;48483;44.640;7.494;2022-12-18T10:19:49;4.80;99.90
39957;DHT22;48483;44.640;7.494;2022-12-18T10:22:25;4.80;99.90
39957;DHT22;48483;44.640;7.494;2022-12-18T10:24:59;4.70;99.90
39957;DHT22;48483;44.640;7.494;2022-12-18T10:27:28;4.60;99.90
39957;DHT22;48483;44.640;7.494;2022-12-18T10:29:56;4.60;99.90
39957;DHT22;48483;44.640;7.494;2022-12-18T10:32:24;4.70;99.90
39957;DHT22;48483;44.640;7.494;2022-12-18T10:34:53;4.70;99.90
39957;DHT22;48483;44.640;7.494;2022-12-18T10:37:22;4.70;99.90
39957;DHT22;48483;44.640;7.494;2022-12-18T10:40:08;4.80;99.90
39957;DHT22;48483;44.640;7.494;2022-12-18T10:42:35;4.80;99.90
39957;DHT22;48483;44.640;7.494;2022-12-18T10:45:05;4.70;99.90
39957;DHT22;48483;44.640;7.494;2022-12-18T10:47:34;4.70;99.90
39957;DHT22;48483;44.640;7.494;2022-12-18T10:50:01;4.70;99.90
39957;DHT22;48483;44.640;7.494;2022-12-18T10:52:28;4.70;99.90
39957;DHT22;48483;44.640;7.494;2022-12-18T10:54:57;4.70;99.90
39957;DHT22;48483;44.640;7.494;2022-12-18T10:57:34;4.70;99.90
39957;DHT22;48483;44.640;7.494;2022-12-18T11:00:23;4.80;99.90
39957;DHT22;48483;44.640;7.494;2022-12-18T11:02:51;4.90;99.90
39957;DHT22;48483;44.640;7.494;2022-12-18T11:05:26;5.00;99.90
39957;DHT22;48483;44.640;7.494;2022-12-18T11:07:54;4.90;99.90
39957;DHT22;48483;44.640;7.494;2022-12-18T11:10:23;4.90;99.90
39957;DHT22;48483;44.640;7.494;2022-12-18T11:12:52;5.00;99.90
39957;DHT22;48483;44.640;7.494;2022-12-18T11:15:20;5.00;99.90
39957;DHT22;48483;44.640;7.494;2022-12-18T11:17:49;5.10;99.90
39957;DHT22;48483;44.640;7.494;2022-12-18T11:20:31;5.10;99.90
39957;DHT22;48483;44.640;7.494;2022-12-18T11:23:01;5.10;99.90
39957;DHT22;48483;44.640;7.494;2022-12-18T11:25:29;5.10;99.90
39957;DHT22;48483;44.640;7.494;2022-12-18T11:27:59;5.10;99.90
39957;DHT22;48483;44.640;7.494;2022-12-18T11:30:28;5.20;99.90
39957;DHT22;48483;44.640;7.494;2022-12-18T11:32:58;5.20;99.90
39957;DHT22;48483;44.640;7.494;2022-12-18T11:35:42;5.20;99.90
39957;DHT22;48483;44.640;7.494;2022-12-18T11:38:19;5.10;99.90
39957;DHT22;48483;44.640;7.494;2022-12-18T11:40:52;5.10;99.90
39957;DHT22;48483;44.640;7.494;2022-12-18T11:43:26;5.20;99.90
39957;DHT22;48483;44.640;7.494;2022-12-18T11:45:56;5.20;99.90
39957;DHT22;48483;44.640;7.494;2022-12-18T11:48:27;5.30;99.90
39957;DHT22;48483;44.640;7.494;2022-12-18T11:50:56;5.40;99.90
39957;DHT22;48483;44.640;7.494;2022-12-18T11:53:25;5.40;99.90
39957;DHT22;48483;44.640;7.494;2022-12-18T11:56:00;5.30;99.90
39957;DHT22;48483;44.640;7.494;2022-12-18T12:01:29;5.30;99.90
39957;DHT22;48483;44.640;7.494;2022-12-18T12:04:20;5.30;99.90
39957;DHT22;48483;44.640;7.494;2022-12-18T12:06:56;5.30;99.90
39957;DHT22;48483;44.640;7.494;2022-12-18T12:09:31;5.30;99.90
39957;DHT22;48483;44.640;7.494;2022-12-18T12:12:15;5.30;99.90
39957;DHT22;48483;44.640;7.494;2022-12-18T12:14:52;5.30;99.90
39957;DHT22;48483;44.640;7.494;2022-12-18T12:17:26;5.40;99.90
39957;DHT22;48483;44.640;7.494;2022-12-18T12:20:02;5.40;99.90
39957;DHT22;48483;44.640;7.494;2022-12-18T12:22:37;5.50;99.90
39957;DHT22;48483;44.640;7.494;2022-12-18T12:25:20;5.50;99.90
39957;DHT22;48483;44.640;7.494;2022-12-18T12:27:53;5.50;99.90
39957;DHT22;48483;44.640;7.494;2022-12-18T12:30:31;5.50;99.90
39957;DHT22;48483;44.640;7.494;2022-12-18T12:33:22;5.50;99.90
39957;DHT22;48483;44.640;7.494;2022-12-18T12:35:58;5.50;99.90
39957;DHT22;48483;44.640;7.494;2022-12-18T12:38:33;5.60;99.90
39957;DHT22;48483;44.640;7.494;2022-12-18T12:41:05;5.60;99.90
39957;DHT22;48483;44.640;7.494;2022-12-18T12:43:37;5.60;99.90
39957;DHT22;48483;44.640;7.494;2022-12-18T12:46:07;5.60;99.90
39957;DHT22;48483;44.640;7.494;2022-12-18T12:48:40;5.60;99.90
39957;DHT22;48483;44.640;7.494;2022-12-18T12:51:12;5.60;99.90
39957;DHT22;48483;44.640;7.494;2022-12-18T12:53:40;5.60;99.90
39957;DHT22;48483;44.640;7.494;2022-12-18T12:56:09;5.60;99.90
39957;DHT22;48483;44.640;7.494;2022-12-18T12:58:43;5.60;99.90
39957;DHT22;48483;44.640;7.494;2022-12-18T13:01:21;5.60;99.90
39957;DHT22;48483;44.640;7.494;2022-12-18T13:03:59;5.60;99.90
39957;DHT22;48483;44.640;7.494;2022-12-18T13:06:37;5.60;99.90
39957;DHT22;48483;44.640;7.494;2022-12-18T13:09:07;5.50;99.90
39957;DHT22;48483;44.640;7.494;2022-12-18T13:11:38;5.50;99.90
39957;DHT22;48483;44.640;7.494;2022-12-18T13:14:28;5.60;99.90
39957;DHT22;48483;44.640;7.494;2022-12-18T13:17:24;5.60;99.90
39957;DHT22;48483;44.640;7.494;2022-12-18T13:20:05;5.60;99.90
39957;DHT22;48483;44.640;7.494;2022-12-18T13:22:34;5.60;99.90
39957;DHT22;48483;44.640;7.494;2022-12-18T13:25:01;5.60;99.90
39957;DHT22;48483;44.640;7.494;2022-12-18T13:27:54;5.60;99.90
39957;DHT22;48483;44.640;7.494;2022-12-18T13:30:41;5.60;99.90
39957;DHT22;48483;44.640;7.494;2022-12-18T13:36:23;5.60;99.90
39957;DHT22;48483;44.640;7.494;2022-12-18T13:39:10;5.60;99.90
39957;DHT22;48483;44.640;7.494;2022-12-18T13:41:37;5.60;99.90
39957;DHT22;48483;44.640;7.494;2022-12-18T13:44:11;5.60;99.90
39957;DHT22;48483;44.640;7.494;2022-12-18T13:46:43;5.60;99.90
39957;DHT22;48483;44.640;7.494;2022-12-18T13:49:22;5.50;99.90
39957;DHT22;48483;44.640;7.494;2022-12-18T13:51:53;5.50;99.90
39957;DHT22;48483;44.640;7.494;2022-12-18T13:54:24;5.60;99.90
39957;DHT22;48483;44.640;7.494;2022-12-18T13:56:51;5.60;99.90
39957;DHT22;48483;44.640;7.494;2022-12-18T13:59:20;5.60;99.90
39957;DHT22;48483;44.640;7.494;2022-12-18T14:01:50;5.50;99.90
39957;DHT22;48483;44.640;7.494;2022-12-18T14:04:21;5.50;99.90
39957;DHT22;48483;44.640;7.494;2022-12-18T14:06:52;5.50;99.90
39957;DHT22;48483;44.640;7.494;2022-12-18T14:09:24;5.50;99.90
39957;DHT22;48483;44.640;7.494;2022-12-18T14:11:52;5.50;99.90
39957;DHT22;48483;44.640;7.494;2022-12-18T14:14:41;5.50;99.90
39957;DHT22;48483;44.640;7.494;2022-12-18T14:17:10;5.50;99.90
39957;DHT22;48483;44.640;7.494;2022-12-18T14:19:41;5.50;99.90
39957;DHT22;48483;44.640;7.494;2022-12-18T14:22:15;5.50;99.90
39957;DHT22;48483;44.640;7.494;2022-12-18T14:24:42;5.50;99.90
39957;DHT22;48483;44.640;7.494;2022-12-18T14:27:27;5.50;99.90
39957;DHT22;48483;44.640;7.494;2022-12-18T14:29:53;5.50;99.90
39957;DHT22;48483;44.640;7.494;2022-12-18T14:32:20;5.40;99.90
39957;DHT22;48483;44.640;7.494;2022-12-18T14:34:48;5.40;99.90
39957;DHT22;48483;44.640;7.494;2022-12-18T14:37:18;5.40;99.90
39957;DHT22;48483;44.640;7.494;2022-12-18T14:39:57;5.40;99.90
39957;DHT22;48483;44.640;7.494;2022-12-18T14:42:24;5.40;99.90
39957;DHT22;48483;44.640;7.494;2022-12-18T14:47:59;5.30;99.90
39957;DHT22;48483;44.640;7.494;2022-12-18T14:50:26;5.30;99.90
39957;DHT22;48483;44.640;7.494;2022-12-18T14:52:54;5.30;99.90
39957;DHT22;48483;44.640;7.494;2022-12-18T14:55:21;5.30;99.90
39957;DHT22;48483;44.640;7.494;2022-12-18T14:57:51;5.20;99.90
39957;DHT22;48483;44.640;7.494;2022-12-18T15:00:21;5.20;99.90
39957;DHT22;48483;44.640;7.494;2022-12-18T15:02:50;5.20;99.90
39957;DHT22;48483;44.640;7.494;2022-12-18T15:05:19;5.20;99.90
39957;DHT22;48483;44.640;7.494;2022-12-18T15:07:47;5.20;99.90
39957;DHT22;48483;44.640;7.494;2022-12-18T15:10:18;5.20;99.90
39957;DHT22;48483;44.640;7.494;2022-12-18T15:12:47;5.20;99.90
39957;DHT22;48483;44.640;7.494;2022-12-18T15:15:46;5.10;99.90
39957;DHT22;48483;44.640;7.494;2022-12-18T15:18:14;5.00;99.90
39957;DHT22;48483;44.640;7.494;2022-12-18T15:20:44;5.10;99.90
39957;DHT22;48483;44.640;7.494;2022-12-18T15:23:15;5.10;99.90
39957;DHT22;48483;44.640;7.494;2022-12-18T15:25:44;5.00;99.90
39957;DHT22;48483;44.640;7.494;2022-12-18T15:28:21;5.00;99.90
39957;DHT22;48483;44.640;7.494;2022-12-18T15:31:04;5.00;99.90
39957;DHT22;48483;44.640;7.494;2022-12-18T15:33:33;4.90;99.90
39957;DHT22;48483;44.640;7.494;2022-12-18T15:36:01;4.90;99.90
39957;DHT22;48483;44.640;7.494;2022-12-18T15:38:29;4.90;99.90
39957;DHT22;48483;44.640;7.494;2022-12-18T15:40:57;4.90;99.90
39957;DHT22;48483;44.640;7.494;2022-12-18T15:43:24;4.80;99.90
39957;DHT22;48483;44.640;7.494;2022-12-18T15:46:01;4.80;99.90
39957;DHT22;48483;44.640;7.494;2022-12-18T15:48:28;4.80;99.90
39957;DHT22;48483;44.640;7.494;2022-12-18T15:50:56;4.80;99.90
39957;DHT22;48483;44.640;7.494;2022-12-18T15:53:26;4.80;99.90
39957;DHT22;48483;44.640;7.494;2022-12-18T15:55:54;4.80;99.90
39957;DHT22;48483;44.640;7.494;2022-12-18T15:58:40;4.70;99.90
39957;DHT22;48483;44.640;7.494;2022-12-18T16:01:09;4.70;99.90
39957;DHT22;48483;44.640;7.494;2022-12-18T16:03:36;4.70;99.90
39957;DHT22;48483;44.640;7.494;2022-12-18T16:06:02;4.70;99.90
39957;DHT22;48483;44.640;7.494;2022-12-18T16:08:30;4.60;99.90
39957;DHT22;48483;44.640;7.494;2022-12-18T16:10:57;4.60;99.90
39957;DHT22;48483;44.640;7.494;2022-12-18T16:13:24;4.60;99.90
39957;DHT22;48483;44.640;7.494;2022-12-18T16:15:53;4.60;99.90